Terminal Aerodrome Forecast
Issued by NWS

Home | Current Version | Previous Version | Text Only | Print | Product List | Glossary On
Versions: 1 2 3 4 5 6 7 8 9 10 11 12 13 14 15 16 17 18 19 20 21 22 23 24 25 26 27 28 29 30 31 32 33 34
000
FTUS43 KGRB 232340
TAFRHI
TAF
KRHI 232340Z 2400/2424 16006KT P6SM SCT060 BKN100
      TEMPO 2400/2402 4SM -SHRA BKN060
     FM240200 17007KT P6SM SCT040 BKN070
      TEMPO 2402/2406 4SM -SHRA BKN040
     FM240600 17007KT 6SM SHRA BKN025 OVC040
     FM240900 22007KT 3SM -RA BR BKN008 OVC012
     FM241500 24009KT P6SM SCT025 BKN045
     FM242000 27010G18KT P6SM SCT050=

USA.gov is the U.S. government's official web portal to all federal, state and local government web resources and services.